sensor_id;sensor_type;location;lat;lon;timestamp;P1;durP1;ratioP1;P2;durP2;ratioP2
53261;SDS011;39658;51.090;-1.786;2022-09-25T00:02:11;5.93;;;1.75;;
53261;SDS011;39658;51.090;-1.786;2022-09-25T00:04:38;6.63;;;2.20;;
53261;SDS011;39658;51.090;-1.786;2022-09-25T00:07:07;8.95;;;1.90;;
53261;SDS011;39658;51.090;-1.786;2022-09-25T00:09:33;7.80;;;2.13;;
53261;SDS011;39658;51.090;-1.786;2022-09-25T00:12:02;7.22;;;2.28;;
53261;SDS011;39658;51.090;-1.786;2022-09-25T00:14:29;9.68;;;2.33;;
53261;SDS011;39658;51.090;-1.786;2022-09-25T00:16:56;9.40;;;2.50;;
53261;SDS011;39658;51.090;-1.786;2022-09-25T00:19:22;8.70;;;2.40;;
53261;SDS011;39658;51.090;-1.786;2022-09-25T00:22:06;5.45;;;1.85;;
53261;SDS011;39658;51.090;-1.786;2022-09-25T00:24:33;7.28;;;2.03;;
53261;SDS011;39658;51.090;-1.786;2022-09-25T00:27:01;7.25;;;1.92;;
53261;SDS011;39658;51.090;-1.786;2022-09-25T00:29:30;21.25;;;6.60;;
53261;SDS011;39658;51.090;-1.786;2022-09-25T00:31:56;6.18;;;1.75;;
53261;SDS011;39658;51.090;-1.786;2022-09-25T00:34:23;9.73;;;2.05;;
53261;SDS011;39658;51.090;-1.786;2022-09-25T00:36:51;9.10;;;2.53;;
53261;SDS011;39658;51.090;-1.786;2022-09-25T00:39:18;7.03;;;2.30;;
53261;SDS011;39658;51.090;-1.786;2022-09-25T00:41:44;5.45;;;2.05;;
53261;SDS011;39658;51.090;-1.786;2022-09-25T00:47:22;8.32;;;2.13;;
53261;SDS011;39658;51.090;-1.786;2022-09-25T00:49:54;5.93;;;1.73;;
53261;SDS011;39658;51.090;-1.786;2022-09-25T00:52:23;9.77;;;2.40;;
53261;SDS011;39658;51.090;-1.786;2022-09-25T00:54:52;6.07;;;2.00;;
53261;SDS011;39658;51.090;-1.786;2022-09-25T00:57:24;7.22;;;2.00;;
53261;SDS011;39658;51.090;-1.786;2022-09-25T00:59:56;9.48;;;2.28;;
53261;SDS011;39658;51.090;-1.786;2022-09-25T01:02:28;5.97;;;2.42;;
53261;SDS011;39658;51.090;-1.786;2022-09-25T01:04:58;7.85;;;2.28;;
53261;SDS011;39658;51.090;-1.786;2022-09-25T01:07:31;10.05;;;2.30;;
53261;SDS011;39658;51.090;-1.786;2022-09-25T01:10:02;8.77;;;2.45;;
53261;SDS011;39658;51.090;-1.786;2022-09-25T01:12:31;8.85;;;2.83;;
53261;SDS011;39658;51.090;-1.786;2022-09-25T01:14:59;8.80;;;2.30;;
53261;SDS011;39658;51.090;-1.786;2022-09-25T01:17:26;9.90;;;2.38;;
53261;SDS011;39658;51.090;-1.786;2022-09-25T01:20:00;8.80;;;3.27;;
53261;SDS011;39658;51.090;-1.786;2022-09-25T01:22:41;7.50;;;1.85;;
53261;SDS011;39658;51.090;-1.786;2022-09-25T01:25:22;13.52;;;2.05;;
53261;SDS011;39658;51.090;-1.786;2022-09-25T01:28:04;6.88;;;2.08;;
53261;SDS011;39658;51.090;-1.786;2022-09-25T01:30:46;6.18;;;1.95;;
53261;SDS011;39658;51.090;-1.786;2022-09-25T01:33:20;9.30;;;2.20;;
53261;SDS011;39658;51.090;-1.786;2022-09-25T01:35:54;14.25;;;2.50;;
53261;SDS011;39658;51.090;-1.786;2022-09-25T01:38:28;8.13;;;2.10;;
53261;SDS011;39658;51.090;-1.786;2022-09-25T01:41:01;8.55;;;2.33;;
53261;SDS011;39658;51.090;-1.786;2022-09-25T01:43:36;8.20;;;2.10;;
53261;SDS011;39658;51.090;-1.786;2022-09-25T01:46:09;10.65;;;2.40;;
53261;SDS011;39658;51.090;-1.786;2022-09-25T01:48:39;7.72;;;2.10;;
53261;SDS011;39658;51.090;-1.786;2022-09-25T01:51:09;6.82;;;1.50;;
53261;SDS011;39658;51.090;-1.786;2022-09-25T01:53:43;6.78;;;2.45;;
53261;SDS011;39658;51.090;-1.786;2022-09-25T01:56:16;10.02;;;2.25;;
53261;SDS011;39658;51.090;-1.786;2022-09-25T01:58:48;6.78;;;1.67;;
53261;SDS011;39658;51.090;-1.786;2022-09-25T02:01:21;10.60;;;2.20;;
53261;SDS011;39658;51.090;-1.786;2022-09-25T02:04:01;10.68;;;1.90;;
53261;SDS011;39658;51.090;-1.786;2022-09-25T02:06:32;10.97;;;2.00;;
53261;SDS011;39658;51.090;-1.786;2022-09-25T02:09:03;8.25;;;2.15;;
53261;SDS011;39658;51.090;-1.786;2022-09-25T02:11:35;10.23;;;2.30;;
53261;SDS011;39658;51.090;-1.786;2022-09-25T02:14:06;10.15;;;2.42;;
53261;SDS011;39658;51.090;-1.786;2022-09-25T02:16:38;8.10;;;2.63;;
53261;SDS011;39658;51.090;-1.786;2022-09-25T02:19:08;12.07;;;2.50;;
53261;SDS011;39658;51.090;-1.786;2022-09-25T02:21:54;9.23;;;2.38;;
53261;SDS011;39658;51.090;-1.786;2022-09-25T02:24:29;13.35;;;2.58;;
53261;SDS011;39658;51.090;-1.786;2022-09-25T02:27:01;8.15;;;2.08;;
53261;SDS011;39658;51.090;-1.786;2022-09-25T02:29:28;14.65;;;2.70;;
53261;SDS011;39658;51.090;-1.786;2022-09-25T02:31:58;9.52;;;2.22;;
53261;SDS011;39658;51.090;-1.786;2022-09-25T02:34:29;9.32;;;2.15;;
53261;SDS011;39658;51.090;-1.786;2022-09-25T02:36:56;12.85;;;2.28;;
53261;SDS011;39658;51.090;-1.786;2022-09-25T02:39:24;8.93;;;2.58;;
53261;SDS011;39658;51.090;-1.786;2022-09-25T02:42:02;17.00;;;2.90;;
53261;SDS011;39658;51.090;-1.786;2022-09-25T02:44:48;8.50;;;2.28;;
53261;SDS011;39658;51.090;-1.786;2022-09-25T02:47:27;12.75;;;2.47;;
53261;SDS011;39658;51.090;-1.786;2022-09-25T02:50:02;7.65;;;2.30;;
53261;SDS011;39658;51.090;-1.786;2022-09-25T02:52:39;8.13;;;2.28;;
53261;SDS011;39658;51.090;-1.786;2022-09-25T02:55:14;9.70;;;2.78;;
53261;SDS011;39658;51.090;-1.786;2022-09-25T02:57:47;11.27;;;2.53;;
53261;SDS011;39658;51.090;-1.786;2022-09-25T03:00:19;8.30;;;2.50;;
53261;SDS011;39658;51.090;-1.786;2022-09-25T03:02:49;8.93;;;2.58;;
53261;SDS011;39658;51.090;-1.786;2022-09-25T03:05:20;10.03;;;2.20;;
53261;SDS011;39658;51.090;-1.786;2022-09-25T03:07:49;10.98;;;2.70;;
53261;SDS011;39658;51.090;-1.786;2022-09-25T03:10:34;9.10;;;2.47;;
53261;SDS011;39658;51.090;-1.786;2022-09-25T03:13:12;12.10;;;3.20;;
53261;SDS011;39658;51.090;-1.786;2022-09-25T03:15:44;10.38;;;3.10;;
53261;SDS011;39658;51.090;-1.786;2022-09-25T03:18:15;11.18;;;3.03;;
53261;SDS011;39658;51.090;-1.786;2022-09-25T03:20:42;10.02;;;2.67;;
53261;SDS011;39658;51.090;-1.786;2022-09-25T03:23:09;9.40;;;2.75;;
53261;SDS011;39658;51.090;-1.786;2022-09-25T03:25:36;10.23;;;2.80;;
53261;SDS011;39658;51.090;-1.786;2022-09-25T03:28:05;11.20;;;2.83;;
53261;SDS011;39658;51.090;-1.786;2022-09-25T03:30:34;10.90;;;2.85;;
53261;SDS011;39658;51.090;-1.786;2022-09-25T03:33:02;11.52;;;2.90;;
53261;SDS011;39658;51.090;-1.786;2022-09-25T03:35:30;10.38;;;3.03;;
53261;SDS011;39658;51.090;-1.786;2022-09-25T03:37:57;13.25;;;3.47;;
53261;SDS011;39658;51.090;-1.786;2022-09-25T03:40:24;12.90;;;2.90;;
53261;SDS011;39658;51.090;-1.786;2022-09-25T03:42:51;8.80;;;2.78;;
53261;SDS011;39658;51.090;-1.786;2022-09-25T03:45:18;15.82;;;2.85;;
53261;SDS011;39658;51.090;-1.786;2022-09-25T03:47:45;9.35;;;3.20;;
53261;SDS011;39658;51.090;-1.786;2022-09-25T03:50:11;8.95;;;3.15;;
53261;SDS011;39658;51.090;-1.786;2022-09-25T03:52:40;11.90;;;3.42;;
53261;SDS011;39658;51.090;-1.786;2022-09-25T03:55:06;9.45;;;2.90;;
53261;SDS011;39658;51.090;-1.786;2022-09-25T03:57:36;10.77;;;3.25;;
53261;SDS011;39658;51.090;-1.786;2022-09-25T04:00:03;13.38;;;3.10;;
53261;SDS011;39658;51.090;-1.786;2022-09-25T04:02:31;11.98;;;2.95;;
53261;SDS011;39658;51.090;-1.786;2022-09-25T04:04:58;9.65;;;3.05;;
53261;SDS011;39658;51.090;-1.786;2022-09-25T04:07:26;12.30;;;3.38;;
53261;SDS011;39658;51.090;-1.786;2022-09-25T04:09:54;9.52;;;3.00;;
53261;SDS011;39658;51.090;-1.786;2022-09-25T04:12:21;9.07;;;2.85;;
53261;SDS011;39658;51.090;-1.786;2022-09-25T04:14:47;9.50;;;2.97;;
53261;SDS011;39658;51.090;-1.786;2022-09-25T04:17:15;15.40;;;3.83;;
53261;SDS011;39658;51.090;-1.786;2022-09-25T04:19:41;12.77;;;4.05;;
53261;SDS011;39658;51.090;-1.786;2022-09-25T04:22:08;11.25;;;3.55;;
53261;SDS011;39658;51.090;-1.786;2022-09-25T04:24:35;14.57;;;3.95;;
53261;SDS011;39658;51.090;-1.786;2022-09-25T04:27:15;13.75;;;3.55;;
53261;SDS011;39658;51.090;-1.786;2022-09-25T04:29:44;10.77;;;3.63;;
53261;SDS011;39658;51.090;-1.786;2022-09-25T04:32:11;11.77;;;3.95;;
53261;SDS011;39658;51.090;-1.786;2022-09-25T04:34:56;12.77;;;3.83;;
53261;SDS011;39658;51.090;-1.786;2022-09-25T04:37:23;9.73;;;3.63;;
53261;SDS011;39658;51.090;-1.786;2022-09-25T04:39:50;11.75;;;3.38;;
53261;SDS011;39658;51.090;-1.786;2022-09-25T04:42:19;14.60;;;4.07;;
53261;SDS011;39658;51.090;-1.786;2022-09-25T04:44:49;15.27;;;3.72;;
53261;SDS011;39658;51.090;-1.786;2022-09-25T04:47:17;13.70;;;3.65;;
53261;SDS011;39658;51.090;-1.786;2022-09-25T04:49:44;10.52;;;3.90;;
53261;SDS011;39658;51.090;-1.786;2022-09-25T04:52:11;13.13;;;3.40;;
53261;SDS011;39658;51.090;-1.786;2022-09-25T04:54:39;15.27;;;3.60;;
53261;SDS011;39658;51.090;-1.786;2022-09-25T04:57:06;10.67;;;3.50;;
53261;SDS011;39658;51.090;-1.786;2022-09-25T04:59:34;9.73;;;3.15;;
53261;SDS011;39658;51.090;-1.786;2022-09-25T05:02:01;7.60;;;3.00;;
53261;SDS011;39658;51.090;-1.786;2022-09-25T05:04:28;10.60;;;3.58;;
53261;SDS011;39658;51.090;-1.786;2022-09-25T05:06:54;15.27;;;3.50;;
53261;SDS011;39658;51.090;-1.786;2022-09-25T05:09:21;13.02;;;3.58;;
53261;SDS011;39658;51.090;-1.786;2022-09-25T05:11:48;11.27;;;3.47;;
53261;SDS011;39658;51.090;-1.786;2022-09-25T05:14:15;9.98;;;4.13;;
53261;SDS011;39658;51.090;-1.786;2022-09-25T05:16:43;9.93;;;3.75;;
53261;SDS011;39658;51.090;-1.786;2022-09-25T05:19:11;10.68;;;3.35;;
53261;SDS011;39658;51.090;-1.786;2022-09-25T05:21:38;10.98;;;4.05;;
53261;SDS011;39658;51.090;-1.786;2022-09-25T05:24:05;15.32;;;3.40;;
53261;SDS011;39658;51.090;-1.786;2022-09-25T05:26:34;9.68;;;3.80;;
53261;SDS011;39658;51.090;-1.786;2022-09-25T05:29:02;10.93;;;4.03;;
53261;SDS011;39658;51.090;-1.786;2022-09-25T05:31:30;20.90;;;4.47;;
53261;SDS011;39658;51.090;-1.786;2022-09-25T05:33:58;11.00;;;4.38;;
53261;SDS011;39658;51.090;-1.786;2022-09-25T05:36:25;13.73;;;4.47;;
53261;SDS011;39658;51.090;-1.786;2022-09-25T05:38:52;12.95;;;4.40;;
53261;SDS011;39658;51.090;-1.786;2022-09-25T05:41:19;14.52;;;4.50;;
53261;SDS011;39658;51.090;-1.786;2022-09-25T05:43:46;12.70;;;4.22;;
53261;SDS011;39658;51.090;-1.786;2022-09-25T05:46:14;20.23;;;5.30;;
53261;SDS011;39658;51.090;-1.786;2022-09-25T05:48:41;10.40;;;4.10;;
53261;SDS011;39658;51.090;-1.786;2022-09-25T05:51:09;11.18;;;4.18;;
53261;SDS011;39658;51.090;-1.786;2022-09-25T05:53:36;10.95;;;4.10;;
53261;SDS011;39658;51.090;-1.786;2022-09-25T05:56:03;15.65;;;4.50;;
53261;SDS011;39658;51.090;-1.786;2022-09-25T05:58:31;12.30;;;4.97;;
53261;SDS011;39658;51.090;-1.786;2022-09-25T06:00:59;13.63;;;5.27;;
53261;SDS011;39658;51.090;-1.786;2022-09-25T06:03:27;10.00;;;4.23;;
53261;SDS011;39658;51.090;-1.786;2022-09-25T06:05:54;10.60;;;4.47;;
53261;SDS011;39658;51.090;-1.786;2022-09-25T06:08:22;14.32;;;4.53;;
53261;SDS011;39658;51.090;-1.786;2022-09-25T06:10:50;11.82;;;4.90;;
53261;SDS011;39658;51.090;-1.786;2022-09-25T06:13:19;12.95;;;4.47;;
53261;SDS011;39658;51.090;-1.786;2022-09-25T06:15:46;11.25;;;4.22;;
53261;SDS011;39658;51.090;-1.786;2022-09-25T06:18:17;19.48;;;4.78;;
53261;SDS011;39658;51.090;-1.786;2022-09-25T06:20:44;9.32;;;4.00;;
53261;SDS011;39658;51.090;-1.786;2022-09-25T06:23:11;12.35;;;4.78;;
53261;SDS011;39658;51.090;-1.786;2022-09-25T06:25:40;9.80;;;4.70;;
53261;SDS011;39658;51.090;-1.786;2022-09-25T06:28:07;13.70;;;5.20;;
53261;SDS011;39658;51.090;-1.786;2022-09-25T06:30:36;13.07;;;4.72;;
53261;SDS011;39658;51.090;-1.786;2022-09-25T06:33:03;15.00;;;4.97;;
53261;SDS011;39658;51.090;-1.786;2022-09-25T06:35:34;17.20;;;5.82;;
53261;SDS011;39658;51.090;-1.786;2022-09-25T06:38:02;13.15;;;5.05;;
53261;SDS011;39658;51.090;-1.786;2022-09-25T06:40:29;13.73;;;5.57;;
53261;SDS011;39658;51.090;-1.786;2022-09-25T06:42:59;12.95;;;4.50;;
53261;SDS011;39658;51.090;-1.786;2022-09-25T06:45:27;20.55;;;6.65;;
53261;SDS011;39658;51.090;-1.786;2022-09-25T06:47:59;12.93;;;4.70;;
53261;SDS011;39658;51.090;-1.786;2022-09-25T06:50:27;14.90;;;4.68;;
53261;SDS011;39658;51.090;-1.786;2022-09-25T06:52:57;12.70;;;5.22;;
53261;SDS011;39658;51.090;-1.786;2022-09-25T06:55:25;14.18;;;4.82;;
53261;SDS011;39658;51.090;-1.786;2022-09-25T06:57:52;13.93;;;5.00;;
53261;SDS011;39658;51.090;-1.786;2022-09-25T07:00:20;15.35;;;5.53;;
53261;SDS011;39658;51.090;-1.786;2022-09-25T07:02:47;13.20;;;5.15;;
53261;SDS011;39658;51.090;-1.786;2022-09-25T07:05:31;14.40;;;4.68;;
53261;SDS011;39658;51.090;-1.786;2022-09-25T07:07:58;11.68;;;4.43;;
53261;SDS011;39658;51.090;-1.786;2022-09-25T07:10:25;18.17;;;4.90;;
53261;SDS011;39658;51.090;-1.786;2022-09-25T07:12:52;13.55;;;5.05;;
53261;SDS011;39658;51.090;-1.786;2022-09-25T07:15:20;13.82;;;4.40;;
53261;SDS011;39658;51.090;-1.786;2022-09-25T07:17:47;22.65;;;4.65;;
53261;SDS011;39658;51.090;-1.786;2022-09-25T07:20:14;12.00;;;4.32;;
53261;SDS011;39658;51.090;-1.786;2022-09-25T07:22:41;15.67;;;4.10;;
53261;SDS011;39658;51.090;-1.786;2022-09-25T07:25:08;14.35;;;4.25;;
53261;SDS011;39658;51.090;-1.786;2022-09-25T07:27:36;11.13;;;3.60;;
53261;SDS011;39658;51.090;-1.786;2022-09-25T07:30:04;14.07;;;3.72;;
53261;SDS011;39658;51.090;-1.786;2022-09-25T07:32:35;9.23;;;3.78;;
53261;SDS011;39658;51.090;-1.786;2022-09-25T07:35:02;11.93;;;3.25;;
53261;SDS011;39658;51.090;-1.786;2022-09-25T07:37:29;13.68;;;3.75;;
53261;SDS011;39658;51.090;-1.786;2022-09-25T07:39:56;10.38;;;3.50;;
53261;SDS011;39658;51.090;-1.786;2022-09-25T07:42:23;15.13;;;3.95;;
53261;SDS011;39658;51.090;-1.786;2022-09-25T07:44:50;12.75;;;3.88;;
53261;SDS011;39658;51.090;-1.786;2022-09-25T07:47:16;10.35;;;3.53;;
53261;SDS011;39658;51.090;-1.786;2022-09-25T07:49:45;12.35;;;3.22;;
53261;SDS011;39658;51.090;-1.786;2022-09-25T07:52:12;9.85;;;3.40;;
53261;SDS011;39658;51.090;-1.786;2022-09-25T07:54:39;12.77;;;3.30;;
53261;SDS011;39658;51.090;-1.786;2022-09-25T07:57:07;11.10;;;3.13;;
53261;SDS011;39658;51.090;-1.786;2022-09-25T07:59:34;9.43;;;3.40;;
53261;SDS011;39658;51.090;-1.786;2022-09-25T08:02:01;10.18;;;2.72;;
53261;SDS011;39658;51.090;-1.786;2022-09-25T08:04:28;10.68;;;3.03;;
53261;SDS011;39658;51.090;-1.786;2022-09-25T08:06:58;13.10;;;2.95;;
53261;SDS011;39658;51.090;-1.786;2022-09-25T08:09:25;9.73;;;2.80;;
53261;SDS011;39658;51.090;-1.786;2022-09-25T08:11:52;9.38;;;2.75;;
53261;SDS011;39658;51.090;-1.786;2022-09-25T08:14:18;11.63;;;2.90;;
53261;SDS011;39658;51.090;-1.786;2022-09-25T08:16:46;11.07;;;2.63;;
53261;SDS011;39658;51.090;-1.786;2022-09-25T08:19:13;10.52;;;2.58;;
53261;SDS011;39658;51.090;-1.786;2022-09-25T08:21:42;7.72;;;2.33;;
53261;SDS011;39658;51.090;-1.786;2022-09-25T08:24:11;11.82;;;2.50;;
53261;SDS011;39658;51.090;-1.786;2022-09-25T08:26:38;8.00;;;2.13;;
53261;SDS011;39658;51.090;-1.786;2022-09-25T08:29:05;8.35;;;2.15;;
53261;SDS011;39658;51.090;-1.786;2022-09-25T08:31:33;11.10;;;2.22;;
53261;SDS011;39658;51.090;-1.786;2022-09-25T08:34:00;8.07;;;2.38;;
53261;SDS011;39658;51.090;-1.786;2022-09-25T08:36:27;9.35;;;2.20;;
53261;SDS011;39658;51.090;-1.786;2022-09-25T08:38:54;8.50;;;2.08;;
53261;SDS011;39658;51.090;-1.786;2022-09-25T08:41:25;8.43;;;2.42;;
53261;SDS011;39658;51.090;-1.786;2022-09-25T08:43:56;10.13;;;2.38;;
53261;SDS011;39658;51.090;-1.786;2022-09-25T08:46:32;14.27;;;2.38;;
53261;SDS011;39658;51.090;-1.786;2022-09-25T08:49:23;10.55;;;2.50;;
53261;SDS011;39658;51.090;-1.786;2022-09-25T08:51:53;9.60;;;2.10;;
53261;SDS011;39658;51.090;-1.786;2022-09-25T08:54:25;8.50;;;1.90;;
53261;SDS011;39658;51.090;-1.786;2022-09-25T08:56:57;8.90;;;2.20;;
53261;SDS011;39658;51.090;-1.786;2022-09-25T08:59:27;9.55;;;2.55;;
53261;SDS011;39658;51.090;-1.786;2022-09-25T09:01:58;10.27;;;2.40;;
53261;SDS011;39658;51.090;-1.786;2022-09-25T09:04:27;8.80;;;2.13;;
53261;SDS011;39658;51.090;-1.786;2022-09-25T09:06:59;10.82;;;2.45;;
53261;SDS011;39658;51.090;-1.786;2022-09-25T09:09:31;9.32;;;2.05;;
53261;SDS011;39658;51.090;-1.786;2022-09-25T09:12:06;7.90;;;2.08;;
53261;SDS011;39658;51.090;-1.786;2022-09-25T09:14:39;9.63;;;2.10;;
53261;SDS011;39658;51.090;-1.786;2022-09-25T09:17:11;9.05;;;1.92;;
53261;SDS011;39658;51.090;-1.786;2022-09-25T09:19:43;10.02;;;1.90;;
53261;SDS011;39658;51.090;-1.786;2022-09-25T09:22:13;8.93;;;2.00;;
53261;SDS011;39658;51.090;-1.786;2022-09-25T09:24:52;6.00;;;1.37;;
53261;SDS011;39658;51.090;-1.786;2022-09-25T09:27:25;6.72;;;1.52;;
53261;SDS011;39658;51.090;-1.786;2022-09-25T09:30:06;9.80;;;1.85;;
53261;SDS011;39658;51.090;-1.786;2022-09-25T09:35:57;6.30;;;1.73;;
53261;SDS011;39658;51.090;-1.786;2022-09-25T09:38:34;6.57;;;1.55;;
53261;SDS011;39658;51.090;-1.786;2022-09-25T09:41:12;6.55;;;1.58;;
53261;SDS011;39658;51.090;-1.786;2022-09-25T09:43:55;5.05;;;1.50;;
53261;SDS011;39658;51.090;-1.786;2022-09-25T09:46:33;6.88;;;1.50;;
53261;SDS011;39658;51.090;-1.786;2022-09-25T09:49:09;5.63;;;1.40;;
53261;SDS011;39658;51.090;-1.786;2022-09-25T09:51:42;5.10;;;1.30;;
53261;SDS011;39658;51.090;-1.786;2022-09-25T09:54:15;7.00;;;1.42;;
53261;SDS011;39658;51.090;-1.786;2022-09-25T09:56:48;5.43;;;1.15;;
53261;SDS011;39658;51.090;-1.786;2022-09-25T09:59:19;7.60;;;1.23;;
53261;SDS011;39658;51.090;-1.786;2022-09-25T10:01:50;5.90;;;1.48;;
53261;SDS011;39658;51.090;-1.786;2022-09-25T10:04:25;5.18;;;1.35;;
53261;SDS011;39658;51.090;-1.786;2022-09-25T10:06:57;6.47;;;1.30;;
53261;SDS011;39658;51.090;-1.786;2022-09-25T10:09:28;4.40;;;1.27;;
53261;SDS011;39658;51.090;-1.786;2022-09-25T10:11:56;7.22;;;1.50;;
53261;SDS011;39658;51.090;-1.786;2022-09-25T10:14:31;5.35;;;1.10;;
53261;SDS011;39658;51.090;-1.786;2022-09-25T10:17:01;5.97;;;1.33;;
53261;SDS011;39658;51.090;-1.786;2022-09-25T10:19:32;4.43;;;1.27;;
53261;SDS011;39658;51.090;-1.786;2022-09-25T10:22:09;4.60;;;1.08;;
53261;SDS011;39658;51.090;-1.786;2022-09-25T10:27:19;3.13;;;0.98;;
53261;SDS011;39658;51.090;-1.786;2022-09-25T10:30:13;5.70;;;1.30;;
53261;SDS011;39658;51.090;-1.786;2022-09-25T10:32:52;3.95;;;1.33;;
53261;SDS011;39658;51.090;-1.786;2022-09-25T10:35:24;6.18;;;1.60;;
53261;SDS011;39658;51.090;-1.786;2022-09-25T10:37:54;4.20;;;1.20;;
53261;SDS011;39658;51.090;-1.786;2022-09-25T10:40:26;6.47;;;1.40;;
53261;SDS011;39658;51.090;-1.786;2022-09-25T10:43:04;3.13;;;0.95;;
53261;SDS011;39658;51.090;-1.786;2022-09-25T10:45:41;4.07;;;1.10;;
53261;SDS011;39658;51.090;-1.786;2022-09-25T10:48:28;5.40;;;1.02;;
53261;SDS011;39658;51.090;-1.786;2022-09-25T10:51:14;3.83;;;1.08;;
53261;SDS011;39658;51.090;-1.786;2022-09-25T10:53:44;5.80;;;1.55;;
53261;SDS011;39658;51.090;-1.786;2022-09-25T10:56:13;8.32;;;1.50;;
53261;SDS011;39658;51.090;-1.786;2022-09-25T10:58:43;8.25;;;1.73;;
53261;SDS011;39658;51.090;-1.786;2022-09-25T11:01:16;5.20;;;1.80;;
53261;SDS011;39658;51.090;-1.786;2022-09-25T11:03:46;4.28;;;1.20;;
53261;SDS011;39658;51.090;-1.786;2022-09-25T11:06:16;5.18;;;1.33;;
53261;SDS011;39658;51.090;-1.786;2022-09-25T11:08:46;3.72;;;0.75;;
53261;SDS011;39658;51.090;-1.786;2022-09-25T11:11:21;2.10;;;0.77;;
53261;SDS011;39658;51.090;-1.786;2022-09-25T11:13:51;4.85;;;1.00;;
53261;SDS011;39658;51.090;-1.786;2022-09-25T11:16:21;6.13;;;1.30;;
53261;SDS011;39658;51.090;-1.786;2022-09-25T11:19:10;4.18;;;1.17;;
53261;SDS011;39658;51.090;-1.786;2022-09-25T11:21:40;4.85;;;1.20;;
53261;SDS011;39658;51.090;-1.786;2022-09-25T11:24:14;3.65;;;1.13;;
53261;SDS011;39658;51.090;-1.786;2022-09-25T11:26:48;4.00;;;1.23;;
53261;SDS011;39658;51.090;-1.786;2022-09-25T11:29:20;5.30;;;1.17;;
53261;SDS011;39658;51.090;-1.786;2022-09-25T11:31:57;6.75;;;1.20;;
53261;SDS011;39658;51.090;-1.786;2022-09-25T11:34:35;2.97;;;0.98;;
53261;SDS011;39658;51.090;-1.786;2022-09-25T11:37:16;4.45;;;1.30;;
53261;SDS011;39658;51.090;-1.786;2022-09-25T11:39:49;4.68;;;1.30;;
53261;SDS011;39658;51.090;-1.786;2022-09-25T11:42:43;4.15;;;1.23;;
53261;SDS011;39658;51.090;-1.786;2022-09-25T11:45:18;4.35;;;1.27;;
53261;SDS011;39658;51.090;-1.786;2022-09-25T11:47:54;2.55;;;0.80;;
53261;SDS011;39658;51.090;-1.786;2022-09-25T11:50:29;7.15;;;1.05;;
53261;SDS011;39658;51.090;-1.786;2022-09-25T11:53:06;4.65;;;1.13;;
53261;SDS011;39658;51.090;-1.786;2022-09-25T11:55:47;7.35;;;1.00;;
53261;SDS011;39658;51.090;-1.786;2022-09-25T11:58:35;5.10;;;1.30;;
53261;SDS011;39658;51.090;-1.786;2022-09-25T12:01:16;5.85;;;1.45;;
53261;SDS011;39658;51.090;-1.786;2022-09-25T12:03:59;3.78;;;1.35;;
53261;SDS011;39658;51.090;-1.786;2022-09-25T12:10:09;6.07;;;1.30;;
53261;SDS011;39658;51.090;-1.786;2022-09-25T12:12:46;5.28;;;1.15;;
53261;SDS011;39658;51.090;-1.786;2022-09-25T12:15:20;3.58;;;1.27;;
53261;SDS011;39658;51.090;-1.786;2022-09-25T12:17:54;2.60;;;0.73;;
53261;SDS011;39658;51.090;-1.786;2022-09-25T12:20:30;4.20;;;1.05;;
53261;SDS011;39658;51.090;-1.786;2022-09-25T12:23:06;4.25;;;1.13;;
53261;SDS011;39658;51.090;-1.786;2022-09-25T12:25:46;3.65;;;1.00;;
53261;SDS011;39658;51.090;-1.786;2022-09-25T12:28:23;4.78;;;1.10;;
53261;SDS011;39658;51.090;-1.786;2022-09-25T12:31:00;4.43;;;1.13;;
53261;SDS011;39658;51.090;-1.786;2022-09-25T12:33:39;3.50;;;1.05;;
53261;SDS011;39658;51.090;-1.786;2022-09-25T12:36:16;4.55;;;1.08;;
53261;SDS011;39658;51.090;-1.786;2022-09-25T12:38:49;4.30;;;0.90;;
53261;SDS011;39658;51.090;-1.786;2022-09-25T12:41:21;4.07;;;1.00;;
53261;SDS011;39658;51.090;-1.786;2022-09-25T12:43:55;4.30;;;1.08;;
53261;SDS011;39658;51.090;-1.786;2022-09-25T12:46:27;5.03;;;1.05;;
53261;SDS011;39658;51.090;-1.786;2022-09-25T12:49:00;5.72;;;1.40;;
53261;SDS011;39658;51.090;-1.786;2022-09-25T12:51:35;5.50;;;1.40;;
53261;SDS011;39658;51.090;-1.786;2022-09-25T12:54:05;4.10;;;1.20;;
53261;SDS011;39658;51.090;-1.786;2022-09-25T12:56:41;4.65;;;1.10;;
53261;SDS011;39658;51.090;-1.786;2022-09-25T12:59:16;8.02;;;2.03;;
53261;SDS011;39658;51.090;-1.786;2022-09-25T13:01:48;6.10;;;1.38;;
53261;SDS011;39658;51.090;-1.786;2022-09-25T13:07:20;5.28;;;1.30;;
53261;SDS011;39658;51.090;-1.786;2022-09-25T13:09:53;3.70;;;1.10;;
53261;SDS011;39658;51.090;-1.786;2022-09-25T13:12:29;5.28;;;1.17;;
53261;SDS011;39658;51.090;-1.786;2022-09-25T13:15:00;3.13;;;0.90;;
53261;SDS011;39658;51.090;-1.786;2022-09-25T13:17:30;4.00;;;1.08;;
53261;SDS011;39658;51.090;-1.786;2022-09-25T13:23:01;3.88;;;1.08;;
53261;SDS011;39658;51.090;-1.786;2022-09-25T13:25:37;4.90;;;0.93;;
53261;SDS011;39658;51.090;-1.786;2022-09-25T13:28:06;6.28;;;1.23;;
53261;SDS011;39658;51.090;-1.786;2022-09-25T13:30:43;2.88;;;0.93;;
53261;SDS011;39658;51.090;-1.786;2022-09-25T13:33:24;4.57;;;1.27;;
53261;SDS011;39658;51.090;-1.786;2022-09-25T13:36:00;7.13;;;1.30;;
53261;SDS011;39658;51.090;-1.786;2022-09-25T13:38:33;3.90;;;1.13;;
53261;SDS011;39658;51.090;-1.786;2022-09-25T13:41:22;2.47;;;0.80;;
53261;SDS011;39658;51.090;-1.786;2022-09-25T13:43:54;4.85;;;1.20;;
53261;SDS011;39658;51.090;-1.786;2022-09-25T13:50:20;7.22;;;1.08;;
53261;SDS011;39658;51.090;-1.786;2022-09-25T13:53:00;3.78;;;1.10;;
53261;SDS011;39658;51.090;-1.786;2022-09-25T14:01:56;5.55;;;1.25;;
53261;SDS011;39658;51.090;-1.786;2022-09-25T14:04:49;7.90;;;0.90;;
53261;SDS011;39658;51.090;-1.786;2022-09-25T14:07:18;3.38;;;1.05;;
53261;SDS011;39658;51.090;-1.786;2022-09-25T14:09:49;3.83;;;1.10;;
53261;SDS011;39658;51.090;-1.786;2022-09-25T14:12:22;5.63;;;1.27;;
53261;SDS011;39658;51.090;-1.786;2022-09-25T14:14:55;5.30;;;1.15;;
53261;SDS011;39658;51.090;-1.786;2022-09-25T14:17:26;5.95;;;1.20;;
53261;SDS011;39658;51.090;-1.786;2022-09-25T14:19:56;3.60;;;0.98;;
53261;SDS011;39658;51.090;-1.786;2022-09-25T14:22:28;4.10;;;1.10;;
53261;SDS011;39658;51.090;-1.786;2022-09-25T14:24:58;4.37;;;1.40;;
53261;SDS011;39658;51.090;-1.786;2022-09-25T14:27:27;4.82;;;1.30;;
53261;SDS011;39658;51.090;-1.786;2022-09-25T14:30:01;3.95;;;1.08;;
53261;SDS011;39658;51.090;-1.786;2022-09-25T14:32:35;2.95;;;1.08;;
53261;SDS011;39658;51.090;-1.786;2022-09-25T14:38:03;5.72;;;1.10;;
53261;SDS011;39658;51.090;-1.786;2022-09-25T14:40:55;4.00;;;1.17;;
53261;SDS011;39658;51.090;-1.786;2022-09-25T14:43:39;4.68;;;1.15;;
53261;SDS011;39658;51.090;-1.786;2022-09-25T14:46:18;8.10;;;1.40;;
53261;SDS011;39658;51.090;-1.786;2022-09-25T14:48:47;5.45;;;1.20;;
53261;SDS011;39658;51.090;-1.786;2022-09-25T14:51:19;4.07;;;1.17;;
53261;SDS011;39658;51.090;-1.786;2022-09-25T14:53:50;5.72;;;1.10;;
53261;SDS011;39658;51.090;-1.786;2022-09-25T14:56:21;3.67;;;0.98;;
53261;SDS011;39658;51.090;-1.786;2022-09-25T14:58:50;5.30;;;1.00;;
53261;SDS011;39658;51.090;-1.786;2022-09-25T15:01:23;5.40;;;1.45;;
53261;SDS011;39658;51.090;-1.786;2022-09-25T15:03:54;6.80;;;1.17;;
53261;SDS011;39658;51.090;-1.786;2022-09-25T15:06:24;3.42;;;0.82;;
53261;SDS011;39658;51.090;-1.786;2022-09-25T15:08:53;9.07;;;1.30;;
53261;SDS011;39658;51.090;-1.786;2022-09-25T15:11:20;7.22;;;1.10;;
53261;SDS011;39658;51.090;-1.786;2022-09-25T15:13:51;4.35;;;1.20;;
53261;SDS011;39658;51.090;-1.786;2022-09-25T15:16:18;3.00;;;1.02;;
53261;SDS011;39658;51.090;-1.786;2022-09-25T15:19:06;6.95;;;1.30;;
53261;SDS011;39658;51.090;-1.786;2022-09-25T15:21:39;6.22;;;1.40;;
53261;SDS011;39658;51.090;-1.786;2022-09-25T15:24:10;5.85;;;1.23;;
53261;SDS011;39658;51.090;-1.786;2022-09-25T15:26:43;18.60;;;1.35;;
53261;SDS011;39658;51.090;-1.786;2022-09-25T15:29:14;5.20;;;1.13;;